Pagrindinis puslapis
METAR-TAF:

METAR-TAF

Oro uostai :

Lampangas, Tailandas

platuma: 18-17N, ilguma: 099-31E, Aukštis: 241 m

Dabartinis oras

Ataskaita buvo paskelbta 4 valandos ir 23 minutes, ne 12:00 UTC
Vėjas 2 kt iš Pietryčių
Temperatūra 20°C
Drėgmė 56%
Slėgis 1008 hPa
Matomumas: 6000 m

METAR: VTCL 271200Z 13002KT 6000 NSC 20/11 Q1008 NOSIG

Laikas: 23:23 (16:23 UTC)

Prognozė

Ataskaita buvo paskelbta 5 valandos ir 23 minutes, ne 11:00 UTC
Prognozė galioja nuo 27 metu 12 UTC su 28 metu 12 UTC
Vėjas 5 kt iš Vakarų/Pietvakarių
Matomumas: 7000 m
Tapsmas
nuo 27 metu 23 UTC su 28 metu 01 UTC
Matomumas: 3000 m
rūkana
Tapsmas
nuo 28 metu 04 UTC su 28 metu 06 UTC
Matomumas: 7000 m

TAF: VTCL 271100Z 2712/2812 24005KT 7000 NSC BECMG 2723/2801 3000 BR BECMG 2804/2806 7000 NSW

Orai ataskaitas ir orų prognozės (METAR, TAF).

turimą stotys yra geltonos ir raudonos taškus žemėlapyje.

Perkelti pele per norėdami pamatyti stoties vardą.

Tada spustelėkite, norėdami matyti oro stebėjimo ir prognozės.

Norėdami pakeisti žemėlapį: spustelėkite ant žalios mygtukų su juodo kryžiaus žemyn,; žalią mygtuką su brūkšneliu, jei norite nutolinti; arba žalių rodyklių gretimoms žemėlapius.


METAR-TAF: